createdAt,value
2019-03-12T00:00:26.194Z,71.17
2019-03-12T00:02:57.932Z,72.30
2019-03-12T00:05:29.931Z,71.70
2019-03-12T00:08:01.651Z,71.92
2019-03-12T00:10:33.628Z,71.99
2019-03-12T00:13:05.505Z,71.90
2019-03-12T00:15:37.388Z,71.82
2019-03-12T00:18:09.115Z,72.60
2019-03-12T00:20:40.848Z,74.90
2019-03-12T00:23:12.647Z,73.23
2019-03-12T00:25:44.467Z,73.80
2019-03-12T00:28:16.195Z,73.65
2019-03-12T00:30:47.998Z,73.06
2019-03-12T00:33:19.722Z,73.89
2019-03-12T00:35:51.530Z,73.97
2019-03-12T00:38:23.336Z,73.69
2019-03-12T00:40:55.342Z,73.43
2019-03-12T00:43:27.054Z,74.03
2019-03-12T00:45:58.879Z,73.62
2019-03-12T00:48:30.652Z,73.97
2019-03-12T00:51:02.463Z,74.48
2019-03-12T00:53:34.176Z,74.05
2019-03-12T00:56:06.071Z,74.17
2019-03-12T00:58:37.790Z,74.78
2019-03-12T01:01:09.754Z,74.46
2019-03-12T01:03:41.480Z,74.43
2019-03-12T01:06:13.466Z,74.74
2019-03-12T01:08:45.255Z,74.93
2019-03-12T01:11:16.990Z,74.78
2019-03-12T01:13:48.712Z,74.87
2019-03-12T01:16:20.525Z,74.77
2019-03-12T01:18:52.589Z,74.70
2019-03-12T01:21:24.680Z,74.17
2019-03-12T01:23:56.824Z,73.98
2019-03-12T01:26:28.583Z,73.72
2019-03-12T01:29:00.375Z,74.36
2019-03-12T01:31:32.446Z,73.89
2019-03-12T01:34:04.173Z,73.59
2019-03-12T01:36:36.179Z,73.11
2019-03-12T01:39:08.705Z,73.34
2019-03-12T01:41:40.584Z,73.59
2019-03-12T01:44:12.315Z,73.03
2019-03-12T01:46:44.137Z,73.12
2019-03-12T01:49:17.019Z,72.53
2019-03-12T01:51:48.844Z,72.63
2019-03-12T01:54:20.581Z,72.70
2019-03-12T01:56:52.436Z,72.96
2019-03-12T01:59:24.173Z,72.76
2019-03-12T02:01:56.005Z,73.17
2019-03-12T02:04:27.810Z,73.10
2019-03-12T02:06:59.633Z,73.02
2019-03-12T02:09:31.999Z,73.29
2019-03-12T02:12:03.964Z,74.02
2019-03-12T02:14:35.979Z,73.36
2019-03-12T02:17:08.299Z,73.31
2019-03-12T02:19:40.275Z,73.60
2019-03-12T02:22:12.029Z,73.44
2019-03-12T02:24:52.750Z,74.12
2019-03-12T02:27:17.526Z,73.81
2019-03-12T02:29:49.261Z,73.81
2019-03-12T02:32:21.036Z,73.87
2019-03-12T02:34:52.914Z,73.49
2019-03-12T02:37:24.728Z,73.87
2019-03-12T02:39:56.455Z,73.61
2019-03-12T02:42:28.192Z,74.63
2019-03-12T02:45:00.534Z,73.75
2019-03-12T02:47:34.020Z,73.61
2019-03-12T02:50:07.371Z,74.35
2019-03-12T02:52:39.193Z,74.14
2019-03-12T02:55:11.219Z,73.88
2019-03-12T02:57:42.993Z,74.69
2019-03-12T03:00:20.162Z,74.99
2019-03-12T03:02:52.386Z,74.10
2019-03-12T03:05:24.705Z,74.25
2019-03-12T03:08:02.140Z,74.66
2019-03-12T03:10:33.979Z,74.20
2019-03-12T03:13:05.793Z,74.34
2019-03-12T03:15:41.054Z,74.01
2019-03-12T03:18:13.028Z,74.35
2019-03-12T03:20:48.216Z,74.83
2019-03-12T03:23:20.015Z,74.13
2019-03-12T03:25:51.836Z,74.28
2019-03-12T03:28:23.569Z,74.36
2019-03-12T03:30:55.391Z,74.72
2019-03-12T03:33:27.195Z,74.86
2019-03-12T03:35:59.002Z,74.79
2019-03-12T03:38:30.989Z,74.32
2019-03-12T03:41:03.113Z,74.70
2019-03-12T03:43:35.312Z,74.75
2019-03-12T03:46:07.216Z,74.56
2019-03-12T03:48:38.964Z,74.82
2019-03-12T03:51:11.789Z,75.04
2019-03-12T03:53:43.619Z,75.66
2019-03-12T03:56:15.431Z,76.64
2019-03-12T03:58:47.506Z,76.75
2019-03-12T04:01:19.396Z,76.47
2019-03-12T04:03:51.290Z,75.96
2019-03-12T04:06:23.093Z,76.02
2019-03-12T04:08:54.840Z,76.23
2019-03-12T04:11:26.573Z,76.64
2019-03-12T04:13:58.321Z,76.00
2019-03-12T04:16:30.052Z,76.56
2019-03-12T04:19:01.875Z,76.93
2019-03-12T04:21:33.706Z,76.15
2019-03-12T04:24:05.903Z,76.28
2019-03-12T04:26:37.759Z,75.98
2019-03-12T04:29:09.581Z,76.37
2019-03-12T04:31:42.281Z,76.52
2019-03-12T04:34:17.171Z,76.18
2019-03-12T04:36:50.531Z,76.56
2019-03-12T04:39:22.429Z,77.38
2019-03-12T04:41:54.250Z,77.55
2019-03-12T04:44:25.994Z,76.95
2019-03-12T04:46:57.877Z,76.76
2019-03-12T04:49:29.619Z,77.18
2019-03-12T04:52:01.438Z,78.32
2019-03-12T04:54:33.422Z,77.99
2019-03-12T04:57:05.229Z,77.71
2019-03-12T04:59:37.304Z,77.36
2019-03-12T05:02:09.828Z,77.64
2019-03-12T05:04:41.568Z,77.75
2019-03-12T05:07:13.293Z,78.33
2019-03-12T05:09:45.039Z,78.14
2019-03-12T05:12:16.848Z,78.38
2019-03-12T05:14:48.743Z,78.24
2019-03-12T05:17:29.793Z,78.79
2019-03-12T05:20:01.525Z,78.44
2019-03-12T05:22:33.331Z,78.69
2019-03-12T05:25:05.717Z,78.16
2019-03-12T05:27:37.603Z,78.60
2019-03-12T05:30:14.583Z,79.11
2019-03-12T05:32:46.473Z,79.01
2019-03-12T05:35:18.369Z,79.54
2019-03-12T05:37:50.173Z,79.43
2019-03-12T05:40:22.006Z,78.73
2019-03-12T05:42:53.887Z,78.47
2019-03-12T05:45:25.959Z,79.08
2019-03-12T05:47:57.861Z,78.74
2019-03-12T05:50:29.845Z,79.48
2019-03-12T05:53:14.002Z,80.33
2019-03-12T05:55:45.925Z,79.69
2019-03-12T05:58:17.821Z,79.65
2019-03-12T06:00:49.644Z,79.55
2019-03-12T06:03:21.522Z,79.24
2019-03-12T06:05:53.411Z,80.27
2019-03-12T06:08:25.314Z,80.01
2019-03-12T06:10:57.541Z,79.58
2019-03-12T06:13:29.779Z,79.86
2019-03-12T06:16:02.057Z,80.47
2019-03-12T06:18:33.801Z,79.64
2019-03-12T06:21:06.131Z,79.05
2019-03-12T06:23:37.896Z,79.85
2019-03-12T06:26:09.788Z,80.38
2019-03-12T06:28:41.762Z,80.56
2019-03-12T06:31:31.096Z,79.39
2019-03-12T06:34:18.871Z,79.33
2019-03-12T06:37:04.582Z,79.70
2019-03-12T06:39:44.771Z,79.83
2019-03-12T06:42:27.625Z,79.92
2019-03-12T06:45:24.785Z,79.58
2019-03-12T06:48:06.087Z,79.62
2019-03-12T06:50:55.401Z,78.79
2019-03-12T06:53:43.801Z,78.62
2019-03-12T06:56:32.840Z,79.59
2019-03-12T06:59:22.837Z,79.17
2019-03-12T07:02:22.418Z,78.79
2019-03-12T07:05:25.114Z,79.57
2019-03-12T07:08:06.914Z,79.34
2019-03-12T07:10:53.411Z,80.51
2019-03-12T07:13:44.187Z,79.97
2019-03-12T07:16:35.294Z,79.26
2019-03-12T07:19:13.145Z,79.51
2019-03-12T07:22:02.477Z,78.71
2019-03-12T07:25:08.310Z,79.70
2019-03-12T07:27:47.998Z,79.11
2019-03-12T07:30:46.875Z,78.78
2019-03-12T07:33:23.113Z,78.04
2019-03-12T07:36:04.236Z,78.34
2019-03-12T07:38:43.883Z,77.51
2019-03-12T07:41:46.695Z,77.28
2019-03-12T07:44:30.844Z,77.60
2019-03-12T07:47:34.885Z,76.50
2019-03-12T07:50:04.024Z,76.08
2019-03-12T07:53:03.914Z,76.14
2019-03-12T07:55:54.696Z,76.57
2019-03-12T07:58:37.444Z,75.72
2019-03-12T08:01:16.560Z,75.33
2019-03-12T08:04:07.216Z,75.22
2019-03-12T08:07:00.981Z,73.72
2019-03-12T08:09:54.838Z,73.95
2019-03-12T08:12:43.949Z,72.82
2019-03-12T08:15:33.432Z,73.81
2019-03-12T08:18:19.904Z,73.11
2019-03-12T08:21:03.396Z,72.49
2019-03-12T08:23:59.939Z,72.16
2019-03-12T08:26:41.621Z,72.74
2019-03-12T08:29:29.973Z,72.24
2019-03-12T08:32:19.389Z,71.66
2019-03-12T08:35:10.187Z,70.34
2019-03-12T08:37:59.346Z,71.02
2019-03-12T08:40:52.487Z,72.30
2019-03-12T08:43:28.026Z,70.75
2019-03-12T08:46:18.199Z,70.35
2019-03-12T08:49:07.620Z,70.32
2019-03-12T08:51:46.653Z,68.97
2019-03-12T08:54:27.546Z,69.07
2019-03-12T08:57:21.529Z,68.06
2019-03-12T09:00:12.436Z,68.01
2019-03-12T09:03:01.592Z,67.94
2019-03-12T09:05:50.543Z,66.82
2019-03-12T09:08:35.301Z,67.40
2019-03-12T09:11:24.754Z,66.78
2019-03-12T09:14:18.583Z,65.98
2019-03-12T09:17:18.390Z,66.33
2019-03-12T09:20:01.587Z,66.09
2019-03-12T09:22:42.607Z,65.34
2019-03-12T09:25:48.300Z,65.41
2019-03-12T09:28:41.789Z,65.27
2019-03-12T09:31:31.461Z,65.27
2019-03-12T09:34:20.812Z,65.13
2019-03-12T09:37:02.718Z,64.57
2019-03-12T09:39:50.417Z,63.65
2019-03-12T09:42:43.234Z,63.24
2019-03-12T09:45:32.732Z,62.97
2019-03-12T09:48:35.452Z,63.13
2019-03-12T09:51:37.981Z,64.20
2019-03-12T09:54:38.281Z,64.99
2019-03-12T09:57:28.673Z,63.83
2019-03-12T10:00:16.333Z,62.48
2019-03-12T10:02:59.721Z,63.34
2019-03-12T10:05:59.883Z,61.07
2019-03-12T10:08:49.247Z,61.68
2019-03-12T10:11:29.539Z,62.37
2019-03-12T10:14:10.615Z,61.17
2019-03-12T10:16:56.843Z,59.86
2019-03-12T10:19:47.173Z,58.96
2019-03-12T10:22:36.310Z,58.82
2019-03-12T10:25:25.418Z,59.44
2019-03-12T10:28:17.530Z,57.23
2019-03-12T10:31:06.971Z,58.10
2019-03-12T10:33:55.860Z,56.59
2019-03-12T10:36:49.432Z,56.72
2019-03-12T10:40:01.305Z,55.12
2019-03-12T10:42:41.256Z,54.28
2019-03-12T10:45:23.763Z,53.93
2019-03-12T10:47:56.120Z,53.16
2019-03-12T10:50:28.437Z,53.40
2019-03-12T10:53:00.308Z,53.35
2019-03-12T10:55:32.042Z,53.08
2019-03-12T10:58:03.911Z,52.96
2019-03-12T11:00:36.117Z,50.85
2019-03-12T11:03:09.436Z,50.85
2019-03-12T11:05:46.323Z,48.77
2019-03-12T11:08:15.032Z,48.22
2019-03-12T11:10:46.847Z,47.02
2019-03-12T11:13:18.639Z,48.73
2019-03-12T11:15:51.028Z,47.54
2019-03-12T11:18:22.737Z,46.76
2019-03-12T11:20:54.557Z,47.24
2019-03-12T11:23:26.347Z,46.91
2019-03-12T11:25:58.403Z,46.48
2019-03-12T11:28:30.210Z,47.20
2019-03-12T11:31:02.007Z,47.57
2019-03-12T11:33:33.799Z,48.63
2019-03-12T11:36:05.683Z,46.47
2019-03-12T11:38:37.547Z,47.73
2019-03-12T11:41:09.868Z,49.92
2019-03-12T11:43:41.604Z,46.24
2019-03-12T11:46:13.476Z,45.85
2019-03-12T11:48:45.334Z,44.48
2019-03-12T11:51:17.205Z,45.77
2019-03-12T11:53:48.988Z,44.87
2019-03-12T11:56:20.958Z,43.66
2019-03-12T11:58:52.729Z,44.18
2019-03-12T12:01:24.851Z,44.67
2019-03-12T12:03:56.642Z,44.52
2019-03-12T12:06:28.512Z,43.74
2019-03-12T12:09:00.358Z,45.46
2019-03-12T12:11:33.691Z,45.40
2019-03-12T12:14:05.554Z,45.64
2019-03-12T12:16:37.357Z,43.98
2019-03-12T12:19:10.150Z,42.78
2019-03-12T12:21:42.017Z,43.86
2019-03-12T12:24:13.814Z,43.35
2019-03-12T12:26:45.814Z,40.52
2019-03-12T12:29:17.607Z,40.46
2019-03-12T12:31:49.339Z,41.43
2019-03-12T12:34:22.097Z,41.56
2019-03-12T12:36:53.973Z,42.89
2019-03-12T12:39:25.704Z,42.67
2019-03-12T12:41:57.437Z,41.66
2019-03-12T12:44:29.493Z,41.98
2019-03-12T12:47:01.271Z,40.91
2019-03-12T12:49:33.124Z,40.15
2019-03-12T12:52:04.919Z,39.96
2019-03-12T12:54:36.813Z,39.53
2019-03-12T12:57:09.503Z,38.76
2019-03-12T12:59:41.474Z,41.16
2019-03-12T13:02:13.603Z,41.05
2019-03-12T13:04:45.405Z,37.48
2019-03-12T13:07:17.220Z,38.92
2019-03-12T13:09:48.952Z,40.11
2019-03-12T13:12:20.776Z,40.82
2019-03-12T13:14:52.485Z,41.19
2019-03-12T13:17:24.219Z,41.10
2019-03-12T13:19:55.944Z,40.33
2019-03-12T13:22:27.924Z,39.69
2019-03-12T13:24:59.651Z,38.96
2019-03-12T13:27:41.774Z,40.09
2019-03-12T13:30:05.468Z,40.86
2019-03-12T13:32:37.916Z,41.86
2019-03-12T13:35:10.656Z,40.25
2019-03-12T13:37:42.585Z,39.77
2019-03-12T13:40:16.064Z,36.92
2019-03-12T13:42:48.060Z,35.82
2019-03-12T13:45:20.352Z,37.41
2019-03-12T13:47:52.368Z,38.77
2019-03-12T13:50:24.322Z,38.63
2019-03-12T13:52:56.259Z,38.21
2019-03-12T13:55:28.088Z,38.56
2019-03-12T13:58:00.225Z,38.99
2019-03-12T14:00:33.524Z,38.97
2019-03-12T14:03:05.592Z,40.18
2019-03-12T14:05:37.408Z,40.33
2019-03-12T14:08:09.364Z,39.84
2019-03-12T14:10:41.239Z,39.41
2019-03-12T14:13:13.142Z,39.09
2019-03-12T14:15:44.997Z,40.00
2019-03-12T14:18:16.802Z,42.20
2019-03-12T14:20:52.055Z,41.34
2019-03-12T14:23:43.127Z,41.79
2019-03-12T14:26:15.710Z,42.51
2019-03-12T14:28:47.778Z,41.71
2019-03-12T14:31:20.624Z,42.76
2019-03-12T14:33:52.769Z,41.97
2019-03-12T14:36:24.562Z,42.05
2019-03-12T14:38:56.458Z,42.13
2019-03-12T14:41:28.248Z,41.55
2019-03-12T14:44:00.165Z,41.76
2019-03-12T14:46:32.043Z,42.51
2019-03-12T14:49:06.550Z,42.16
2019-03-12T14:52:09.282Z,42.41
2019-03-12T14:54:41.166Z,42.50
2019-03-12T14:57:13.226Z,42.70
2019-03-12T14:59:45.108Z,42.56
2019-03-12T15:02:17.225Z,41.61
2019-03-12T15:04:49.043Z,42.05
2019-03-12T15:07:20.919Z,41.91
2019-03-12T15:09:52.654Z,42.51
2019-03-12T15:12:24.387Z,42.30
2019-03-12T15:14:56.117Z,41.40
2019-03-12T15:17:27.854Z,40.83
2019-03-12T15:19:59.591Z,42.59
2019-03-12T15:22:31.352Z,41.21
2019-03-12T15:25:03.240Z,41.44
2019-03-12T15:27:35.042Z,40.39
2019-03-12T15:30:12.027Z,40.84
2019-03-12T15:32:43.762Z,40.05
2019-03-12T15:35:15.581Z,39.91
2019-03-12T15:37:47.713Z,40.63
2019-03-12T15:40:20.496Z,41.14
2019-03-12T15:42:52.236Z,41.23
2019-03-12T15:45:23.984Z,41.20
2019-03-12T15:47:55.804Z,42.04
2019-03-12T15:50:27.702Z,40.27
2019-03-12T15:52:59.565Z,40.92
2019-03-12T15:55:31.309Z,40.71
2019-03-12T15:58:03.183Z,40.92
2019-03-12T16:00:35.143Z,41.92
2019-03-12T16:03:06.955Z,40.80
2019-03-12T16:05:38.772Z,40.07
2019-03-12T16:08:10.812Z,40.20
2019-03-12T16:10:42.634Z,40.23
2019-03-12T16:13:14.704Z,40.90
2019-03-12T16:15:46.425Z,41.26
2019-03-12T16:18:18.190Z,41.37
2019-03-12T16:20:49.979Z,41.32
2019-03-12T16:23:21.711Z,41.82
2019-03-12T16:25:53.515Z,41.83
2019-03-12T16:28:25.320Z,42.69
2019-03-12T16:30:57.209Z,42.63
2019-03-12T16:33:28.940Z,43.98
2019-03-12T16:36:00.827Z,43.23
2019-03-12T16:38:32.707Z,43.59
2019-03-12T16:41:04.532Z,44.11
2019-03-12T16:43:36.390Z,44.84
2019-03-12T16:46:08.525Z,44.48
2019-03-12T16:48:40.315Z,44.93
2019-03-12T16:51:12.133Z,44.88
2019-03-12T16:53:43.870Z,46.23
2019-03-12T16:56:16.012Z,46.43
2019-03-12T16:58:47.731Z,47.33
2019-03-12T17:01:19.478Z,46.39
2019-03-12T17:03:51.732Z,45.55
2019-03-12T17:06:23.541Z,45.25
2019-03-12T17:08:55.346Z,45.63
2019-03-12T17:11:27.103Z,45.75
2019-03-12T17:13:58.909Z,45.23
2019-03-12T17:16:30.731Z,45.67
2019-03-12T17:19:02.467Z,45.46
2019-03-12T17:21:34.366Z,44.96
2019-03-12T17:24:06.505Z,45.05
2019-03-12T17:26:38.263Z,45.42
2019-03-12T17:29:11.245Z,45.25
2019-03-12T17:31:42.986Z,45.51
2019-03-12T17:34:14.723Z,44.96
2019-03-12T17:36:46.474Z,45.73
2019-03-12T17:39:18.189Z,44.89
2019-03-12T17:41:49.928Z,45.01
2019-03-12T17:44:21.652Z,44.64
2019-03-12T17:46:53.387Z,45.05
2019-03-12T17:49:25.289Z,45.07
2019-03-12T17:51:57.014Z,44.85
2019-03-12T17:54:31.921Z,44.92
2019-03-12T17:57:02.451Z,44.26
2019-03-12T17:59:34.675Z,45.08
2019-03-12T18:02:06.637Z,44.69
2019-03-12T18:04:38.371Z,44.56
2019-03-12T18:07:31.250Z,45.35
2019-03-12T18:10:03.176Z,45.55
2019-03-12T18:12:36.782Z,45.43
2019-03-12T18:15:11.014Z,45.33
2019-03-12T18:17:43.492Z,45.20
2019-03-12T18:20:16.468Z,45.30
2019-03-12T18:22:48.285Z,44.99
2019-03-12T18:25:25.804Z,44.35
2019-03-12T18:27:57.982Z,43.88
2019-03-12T18:30:30.148Z,43.80
2019-03-12T18:33:02.436Z,44.44
2019-03-12T18:35:34.319Z,43.97
2019-03-12T18:38:06.209Z,43.49
2019-03-12T18:40:38.023Z,42.87
2019-03-12T18:43:09.920Z,42.38
2019-03-12T18:45:41.732Z,43.07
2019-03-12T18:48:14.631Z,42.73
2019-03-12T18:50:47.076Z,42.86
2019-03-12T18:53:18.982Z,42.62
2019-03-12T18:56:05.859Z,42.68
2019-03-12T18:58:38.022Z,42.42
2019-03-12T19:01:13.526Z,42.69
2019-03-12T19:03:46.518Z,42.59
2019-03-12T19:06:18.496Z,42.79
2019-03-12T19:08:50.403Z,42.05
2019-03-12T19:11:22.424Z,42.67
2019-03-12T19:13:54.295Z,42.32
2019-03-12T19:16:26.113Z,42.26
2019-03-12T19:18:58.022Z,42.56
2019-03-12T19:21:29.949Z,43.14
2019-03-12T19:24:01.818Z,42.73
2019-03-12T19:26:34.613Z,42.60
2019-03-12T19:29:06.490Z,42.57
2019-03-12T19:31:53.552Z,42.75
2019-03-12T19:34:36.189Z,42.06
2019-03-12T19:37:08.251Z,42.83
2019-03-12T19:39:40.059Z,42.69
2019-03-12T19:42:11.968Z,43.00
2019-03-12T19:44:43.835Z,42.74
2019-03-12T19:47:15.716Z,42.85
2019-03-12T19:49:47.514Z,42.07
2019-03-12T19:52:20.410Z,42.84
2019-03-12T19:54:52.137Z,42.41
2019-03-12T19:57:24.916Z,42.54
2019-03-12T19:59:56.780Z,42.44
2019-03-12T20:02:29.037Z,42.93
2019-03-12T20:05:00.833Z,42.79
2019-03-12T20:07:33.930Z,42.72
2019-03-12T20:10:58.454Z,42.92
2019-03-12T20:14:31.275Z,42.83
2019-03-12T20:18:07.758Z,43.39
2019-03-12T20:21:22.707Z,43.51
2019-03-12T20:24:50.461Z,43.43
2019-03-12T20:28:19.927Z,43.61
2019-03-12T20:31:49.185Z,43.72
2019-03-12T20:35:21.675Z,44.07
2019-03-12T20:39:06.431Z,44.98
2019-03-12T20:42:32.665Z,44.95
2019-03-12T20:45:44.700Z,45.90
2019-03-12T20:48:49.092Z,45.74
2019-03-12T20:52:15.623Z,46.32
2019-03-12T20:56:20.883Z,46.31
2019-03-12T20:59:53.106Z,47.11
2019-03-12T21:03:27.476Z,47.97
2019-03-12T21:06:43.302Z,46.90
2019-03-12T21:10:17.327Z,47.02
2019-03-12T21:13:27.670Z,47.65
2019-03-12T21:17:00.446Z,47.10
2019-03-12T21:20:41.422Z,46.60
2019-03-12T21:23:55.126Z,47.01
2019-03-12T21:27:21.467Z,46.47
2019-03-12T21:29:52.458Z,45.95
2019-03-12T21:32:24.664Z,46.52
2019-03-12T21:34:56.483Z,47.16
2019-03-12T21:37:28.343Z,46.78
2019-03-12T21:40:00.339Z,47.42
2019-03-12T21:42:33.742Z,46.76
2019-03-12T21:45:06.003Z,47.37
2019-03-12T21:47:37.755Z,48.07
2019-03-12T21:50:09.864Z,47.97
2019-03-12T21:52:41.581Z,48.41
2019-03-12T21:55:13.594Z,48.96
2019-03-12T21:57:47.188Z,48.94
2019-03-12T22:00:19.706Z,48.65
2019-03-12T22:02:51.441Z,49.18
2019-03-12T22:05:23.237Z,49.54
2019-03-12T22:07:54.945Z,49.40
2019-03-12T22:10:26.846Z,49.12
2019-03-12T22:12:58.542Z,49.07
2019-03-12T22:15:30.348Z,48.63
2019-03-12T22:18:02.336Z,48.59
2019-03-12T22:20:34.063Z,47.48
2019-03-12T22:23:13.882Z,47.72
2019-03-12T22:25:45.772Z,47.84
2019-03-12T22:28:17.574Z,47.41
2019-03-12T22:30:50.418Z,47.24
2019-03-12T22:33:22.421Z,47.34
2019-03-12T22:35:54.158Z,47.49
2019-03-12T22:38:25.970Z,47.03
2019-03-12T22:40:57.963Z,46.52
2019-03-12T22:43:29.679Z,46.76
2019-03-12T22:46:01.420Z,46.81
2019-03-12T22:48:33.221Z,46.87
2019-03-12T22:51:05.041Z,46.95
2019-03-12T22:53:37.107Z,47.33
2019-03-12T22:56:09.079Z,47.76
2019-03-12T22:58:40.870Z,47.89
2019-03-12T23:01:30.533Z,48.33
2019-03-12T23:04:19.734Z,48.33
2019-03-12T23:07:09.221Z,47.79
2019-03-12T23:09:45.970Z,48.14
2019-03-12T23:12:22.514Z,47.95
2019-03-12T23:14:55.854Z,48.02
2019-03-12T23:17:28.682Z,46.98
2019-03-12T23:20:00.488Z,47.05
2019-03-12T23:22:32.742Z,46.52
2019-03-12T23:25:04.624Z,46.00
2019-03-12T23:27:38.199Z,46.00
2019-03-12T23:30:12.901Z,45.94
2019-03-12T23:32:44.780Z,46.83
2019-03-12T23:35:16.725Z,47.17
2019-03-12T23:37:48.599Z,47.51
2019-03-12T23:40:20.579Z,47.63
2019-03-12T23:42:52.302Z,48.25
2019-03-12T23:45:24.360Z,49.89
2019-03-12T23:47:56.220Z,49.54
2019-03-12T23:50:28.634Z,49.77
2019-03-12T23:53:00.526Z,51.48
2019-03-12T23:55:32.489Z,50.88
2019-03-12T23:58:04.438Z,50.65
